Time;durP1;ratioP1;P1;durP2;ratioP2;P2;SDS_P1;SDS_P2;PMS_P1;PMS_P2;Temp;Humidity;BMP_temperature;BMP_pressure;BME280_temperature;BME280_humidity;BME280_pressure;Samples;Min_cycle;Max_cycle;Signal;HPM_P1;HPM_P2
2024/03/01 00:01:06;;;;;;;;;;;;;;;;;;2218813;66;1340;-83
2024/03/01 00:03:37;;;;;;;;;;;;;;;;;;2229856;66;1322;-82
2024/03/01 00:06:07;;;;;;;;;;;;;;;;;;2217531;66;1276;-83
2024/03/01 00:08:37;;;;;;;;;;;;;;;;;;2230179;66;1096;-83
2024/03/01 00:11:08;;;;;;;;;;;;;;;;;;2233647;58;2138;-83
2024/03/01 00:13:38;;;;;;;;;;;;;;;;;;2218042;59;1384;-83
2024/03/01 00:16:08;;;;;;;;;;;;;;;;;;2218238;62;1077;-83
2024/03/01 00:18:41;;;;;;;;;;;;;;;;;;2233756;58;1921;-82
2024/03/01 00:21:14;;;;;;;;;;;;;;;;;;2224926;66;1227;-83
2024/03/01 00:23:45;;;;;;;;;;;;;;;;;;2208954;66;1422;-82
2024/03/01 00:26:15;;;;;;;;;;;;;;;;;;2220887;66;1466;-82
2024/03/01 00:28:45;;;;;;;;;;;;;;;;;;2205684;66;1311;-82
2024/03/01 00:31:15;;;;;;;;;;;;;;;;;;2220358;66;1488;-83
2024/03/01 00:33:46;;;;;;;;;;;;;;;;;;2209131;66;1217;-82
2024/03/01 00:36:16;;;;;;;;;;;;;;;;;;2208025;66;1649;-82
2024/03/01 00:38:46;;;;;;;;;;;;;;;;;;2218411;66;1912;-82
2024/03/01 00:41:16;;;;;;;;;;;;;;;;;;2210385;59;1372;-82
2024/03/01 00:43:48;;;;;;;;;;;;;;;;;;2218050;66;1238;-82
2024/03/01 00:46:18;;;;;;;;;;;;;;;;;;2219845;58;1506;-82
2024/03/01 00:48:49;;;;;;;;;;;;;;;;;;2221328;66;1196;-82
2024/03/01 00:51:20;;;;;;;;;;;;;;;;;;2217056;66;1497;-82
2024/03/01 00:53:50;;;;;;;;;;;;;;;;;;2205671;59;1805;-82
2024/03/01 00:56:20;;;;;;;;;;;;;;;;;;2205014;66;1154;-82
2024/03/01 00:58:50;;;;;;;;;;;;;;;;;;2220023;66;1909;-82
2024/03/01 01:01:20;;;;;;;;;;;;;;;;;;2222013;66;1305;-82
2024/03/01 01:03:52;;;;;;;;;;;;;;;;;;2222643;66;1364;-83
2024/03/01 01:06:22;;;;;;;;;;;;;;;;;;2219021;66;1354;-82
2024/03/01 01:08:52;;;;;;;;;;;;;;;;;;2208094;66;1215;-82
2024/03/01 01:11:22;;;;;;;;;;;;;;;;;;2208248;66;1236;-82
2024/03/01 01:13:53;;;;;;;;;;;;;;;;;;2209642;59;1560;-82
2024/03/01 01:16:23;;;;;;;;;;;;;;;;;;2208701;66;1230;-82
2024/03/01 01:18:54;;;;;;;;;;;;;;;;;;2220047;66;1931;-82
2024/03/01 01:21:24;;;;;;;;;;;;;;;;;;2208812;59;1192;-82
2024/03/01 01:23:54;;;;;;;;;;;;;;;;;;2208209;66;1408;-83
2024/03/01 01:26:24;;;;;;;;;;;;;;;;;;2220076;66;1264;-82
2024/03/01 01:28:55;;;;;;;;;;;;;;;;;;2218950;66;1300;-82
2024/03/01 01:31:26;;;;;;;;;;;;;;;;;;2221522;66;1303;-82
2024/03/01 01:33:56;;;;;;;;;;;;;;;;;;2207972;66;1276;-82
2024/03/01 01:36:26;;;;;;;;;;;;;;;;;;2220916;66;1954;-83
2024/03/01 01:38:56;;;;;;;;;;;;;;;;;;2220968;58;2318;-83
2024/03/01 01:41:27;;;;;;;;;;;;;;;;;;2209722;59;2023;-82
2024/03/01 01:43:57;;;;;;;;;;;;;;;;;;2220704;58;1232;-83
2024/03/01 01:46:27;;;;;;;;;;;;;;;;;;2221012;58;1428;-82
2024/03/01 01:48:58;;;;;;;;;;;;;;;;;;2221387;66;1467;-82
2024/03/01 01:51:29;;;;;;;;;;;;;;;;;;2209595;66;1218;-82
2024/03/01 01:53:59;;;;;;;;;;;;;;;;;;2218060;58;1472;-82
2024/03/01 01:56:30;;;;;;;;;;;;;;;;;;2215371;59;1585;-82
2024/03/01 01:59:00;;;;;;;;;;;;;;;;;;2218149;66;1941;-83
2024/03/01 02:01:31;;;;;;;;;;;;;;;;;;2219157;66;1244;-82
2024/03/01 02:04:02;;;;;;;;;;;;;;;;;;2207690;66;1183;-83
2024/03/01 02:06:32;;;;;;;;;;;;;;;;;;2217987;66;2081;-82
2024/03/01 02:09:12;;;;;;;;;;;;;;;;;;2216873;59;1281;-83
2024/03/01 02:11:42;;;;;;;;;;;;;;;;;;2206013;66;1191;-82
2024/03/01 02:14:12;;;;;;;;;;;;;;;;;;2219744;66;1206;-82
2024/03/01 02:16:42;;;;;;;;;;;;;;;;;;2205471;66;1164;-82
2024/03/01 02:19:15;;;;;;;;;;;;;;;;;;2209553;66;1929;-82
2024/03/01 02:21:53;;;;;;;;;;;;;;;;;;2218779;66;1214;-82
2024/03/01 02:24:23;;;;;;;;;;;;;;;;;;2218941;66;1294;-83
2024/03/01 02:26:54;;;;;;;;;;;;;;;;;;2216970;66;1676;-82
2024/03/01 02:29:25;;;;;;;;;;;;;;;;;;2216267;66;1540;-82
2024/03/01 02:31:55;;;;;;;;;;;;;;;;;;2220031;66;1742;-82
2024/03/01 02:34:25;;;;;;;;;;;;;;;;;;2217831;66;1356;-82
2024/03/01 02:36:56;;;;;;;;;;;;;;;;;;2218526;66;1475;-82
2024/03/01 02:39:26;;;;;;;;;;;;;;;;;;2206044;66;2003;-82
2024/03/01 02:41:56;;;;;;;;;;;;;;;;;;2217223;59;1322;-82
2024/03/01 02:44:26;;;;;;;;;;;;;;;;;;2205583;59;1358;-81
2024/03/01 02:46:57;;;;;;;;;;;;;;;;;;2206237;59;1468;-82
2024/03/01 02:49:27;;;;;;;;;;;;;;;;;;2206556;59;1429;-81
2024/03/01 02:51:57;;;;;;;;;;;;;;;;;;2205171;66;1374;-81
2024/03/01 02:54:27;;;;;;;;;;;;;;;;;;2209072;59;1391;-82
2024/03/01 02:56:58;;;;;;;;;;;;;;;;;;2208983;66;1232;-81
2024/03/01 02:59:29;;;;;;;;;;;;;;;;;;2209047;66;1979;-81
2024/03/01 03:02:00;;;;;;;;;;;;;;;;;;2209109;59;1455;-82
2024/03/01 03:04:30;;;;;;;;;;;;;;;;;;2208898;66;1146;-81
2024/03/01 03:07:00;;;;;;;;;;;;;;;;;;2221876;66;1594;-81
2024/03/01 03:09:32;;;;;;;;;;;;;;;;;;2208902;66;1451;-82
2024/03/01 03:12:02;;;;;;;;;;;;;;;;;;2208461;66;1300;-81
2024/03/01 03:14:32;;;;;;;;;;;;;;;;;;2209621;59;1454;-81
2024/03/01 03:17:06;;;;;;;;;;;;;;;;;;2210109;66;1649;-81
2024/03/01 03:19:36;;;;;;;;;;;;;;;;;;2208715;59;1935;-81
2024/03/01 03:22:08;;;;;;;;;;;;;;;;;;2208938;66;1443;-81
2024/03/01 03:24:39;;;;;;;;;;;;;;;;;;2208406;59;1423;-83
2024/03/01 03:27:10;;;;;;;;;;;;;;;;;;2217863;59;1106;-82
2024/03/01 03:29:40;;;;;;;;;;;;;;;;;;2220814;59;1361;-81
2024/03/01 03:32:10;;;;;;;;;;;;;;;;;;2217574;66;1287;-82
2024/03/01 03:34:40;;;;;;;;;;;;;;;;;;2220474;66;1196;-82
2024/03/01 03:37:10;;;;;;;;;;;;;;;;;;2217225;66;1450;-82
2024/03/01 03:39:41;;;;;;;;;;;;;;;;;;2220684;66;1947;-82
2024/03/01 03:42:11;;;;;;;;;;;;;;;;;;2217732;66;1239;-82
2024/03/01 03:44:41;;;;;;;;;;;;;;;;;;2209138;66;1439;-82
2024/03/01 03:47:11;;;;;;;;;;;;;;;;;;2221188;58;1446;-82
2024/03/01 03:49:45;;;;;;;;;;;;;;;;;;2221962;59;1563;-82
2024/03/01 03:52:15;;;;;;;;;;;;;;;;;;2215049;66;1833;-82
2024/03/01 03:54:46;;;;;;;;;;;;;;;;;;2208761;66;1328;-82
2024/03/01 03:57:16;;;;;;;;;;;;;;;;;;2208621;66;1239;-82
2024/03/01 03:59:46;;;;;;;;;;;;;;;;;;2207761;66;2070;-82
2024/03/01 04:02:16;;;;;;;;;;;;;;;;;;2208543;66;1311;-81
2024/03/01 04:04:46;;;;;;;;;;;;;;;;;;2209362;66;1381;-82
2024/03/01 04:07:17;;;;;;;;;;;;;;;;;;2208423;66;1271;-82
2024/03/01 04:09:47;;;;;;;;;;;;;;;;;;2207776;60;1967;-81
2024/03/01 04:12:17;;;;;;;;;;;;;;;;;;2220396;66;1343;-82
2024/03/01 04:14:48;;;;;;;;;;;;;;;;;;2208495;59;1415;-82
2024/03/01 04:17:19;;;;;;;;;;;;;;;;;;2208637;66;1083;-82
2024/03/01 04:19:49;;;;;;;;;;;;;;;;;;2210160;66;1931;-82
2024/03/01 04:22:19;;;;;;;;;;;;;;;;;;2210424;66;1521;-82
2024/03/01 04:24:49;;;;;;;;;;;;;;;;;;2208269;66;1086;-81
2024/03/01 04:27:21;;;;;;;;;;;;;;;;;;2221155;66;1414;-82
2024/03/01 04:29:51;;;;;;;;;;;;;;;;;;2209112;66;1534;-82
2024/03/01 04:32:21;;;;;;;;;;;;;;;;;;2208510;66;1227;-82
2024/03/01 04:34:51;;;;;;;;;;;;;;;;;;2209780;59;1217;-82
2024/03/01 04:37:22;;;;;;;;;;;;;;;;;;2208923;59;2389;-82
2024/03/01 04:39:52;;;;;;;;;;;;;;;;;;2208674;66;1940;-82
2024/03/01 04:42:22;;;;;;;;;;;;;;;;;;2221966;66;1279;-82
2024/03/01 04:44:52;;;;;;;;;;;;;;;;;;2209346;59;1390;-82
2024/03/01 04:47:22;;;;;;;;;;;;;;;;;;2209208;66;1237;-81
2024/03/01 04:49:52;;;;;;;;;;;;;;;;;;2208004;66;1346;-82
2024/03/01 04:52:26;;;;;;;;;;;;;;;;;;2208971;59;1262;-82
2024/03/01 04:54:56;;;;;;;;;;;;;;;;;;2204311;59;1462;-83
2024/03/01 04:57:27;;;;;;;;;;;;;;;;;;2205273;66;1195;-82
2024/03/01 04:59:57;;;;;;;;;;;;;;;;;;2204628;66;1992;-82
2024/03/01 05:02:28;;;;;;;;;;;;;;;;;;2205564;59;1360;-81
2024/03/01 05:05:00;;;;;;;;;;;;;;;;;;2205489;59;1499;-82
2024/03/01 05:07:30;;;;;;;;;;;;;;;;;;2205185;66;1234;-82
2024/03/01 05:10:00;;;;;;;;;;;;;;;;;;2202204;66;1278;-82
2024/03/01 05:12:30;;;;;;;;;;;;;;;;;;2204529;66;1208;-82
2024/03/01 05:15:01;;;;;;;;;;;;;;;;;;2204656;66;1603;-82
2024/03/01 05:17:32;;;;;;;;;;;;;;;;;;2204390;66;1373;-82
2024/03/01 05:20:08;;;;;;;;;;;;;;;;;;2204149;66;1167;-81
2024/03/01 05:22:39;;;;;;;;;;;;;;;;;;2205157;66;1323;-82
2024/03/01 05:25:15;;;;;;;;;;;;;;;;;;2204876;66;1168;-82
2024/03/01 05:27:47;;;;;;;;;;;;;;;;;;2205070;66;1133;-82
2024/03/01 05:30:19;;;;;;;;;;;;;;;;;;2204154;66;1703;-82
2024/03/01 05:32:53;;;;;;;;;;;;;;;;;;2206376;66;1436;-82
2024/03/01 05:35:23;;;;;;;;;;;;;;;;;;2202348;67;1880;-82
2024/03/01 05:37:56;;;;;;;;;;;;;;;;;;2204393;59;1937;-82
2024/03/01 05:40:26;;;;;;;;;;;;;;;;;;2204529;66;1369;-82
2024/03/01 05:42:57;;;;;;;;;;;;;;;;;;2205899;66;1731;-82
2024/03/01 05:45:27;;;;;;;;;;;;;;;;;;2205477;59;1398;-82
2024/03/01 05:47:57;;;;;;;;;;;;;;;;;;2204950;66;1360;-82
2024/03/01 05:50:27;;;;;;;;;;;;;;;;;;2205274;60;1798;-82
2024/03/01 05:52:58;;;;;;;;;;;;;;;;;;2207097;59;1232;-82
2024/03/01 05:55:29;;;;;;;;;;;;;;;;;;2225718;58;1398;-82
2024/03/01 05:58:01;;;;;;;;;;;;;;;;;;2227259;66;1987;-81
2024/03/01 06:00:31;;;;;;;;;;;;;;;;;;2228196;66;1387;-82
2024/03/01 06:03:02;;;;;;;;;;;;;;;;;;2225389;58;1818;-82
2024/03/01 06:05:32;;;;;;;;;;;;;;;;;;2228012;66;1276;-82
2024/03/01 06:08:02;;;;;;;;;;;;;;;;;;2227077;66;1325;-82
2024/03/01 06:10:32;;;;;;;;;;;;;;;;;;2227766;66;1160;-82
2024/03/01 06:13:03;;;;;;;;;;;;;;;;;;2226621;66;1236;-82
2024/03/01 06:15:33;;;;;;;;;;;;;;;;;;2227307;58;1559;-82
2024/03/01 06:18:03;;;;;;;;;;;;;;;;;;2227812;58;1928;-82
2024/03/01 06:20:35;;;;;;;;;;;;;;;;;;2226697;66;1172;-82
2024/03/01 06:23:05;;;;;;;;;;;;;;;;;;2225870;66;1304;-82
2024/03/01 06:25:35;;;;;;;;;;;;;;;;;;2228386;66;1273;-82
2024/03/01 06:28:05;;;;;;;;;;;;;;;;;;2226478;59;1231;-82
2024/03/01 06:30:36;;;;;;;;;;;;;;;;;;2228071;66;1189;-82
2024/03/01 06:33:06;;;;;;;;;;;;;;;;;;2226829;59;1508;-82
2024/03/01 06:35:36;;;;;;;;;;;;;;;;;;2221185;66;1320;-83
2024/03/01 06:38:06;;;;;;;;;;;;;;;;;;2224454;59;2010;-82
2024/03/01 06:40:37;;;;;;;;;;;;;;;;;;2223349;66;1364;-83
2024/03/01 06:43:07;;;;;;;;;;;;;;;;;;2226840;66;1389;-83
2024/03/01 06:45:37;;;;;;;;;;;;;;;;;;2226028;59;1490;-83
2024/03/01 06:48:07;;;;;;;;;;;;;;;;;;2224798;66;1693;-83
2024/03/01 06:50:37;;;;;;;;;;;;;;;;;;2226934;58;1367;-82
2024/03/01 06:53:08;;;;;;;;;;;;;;;;;;2234201;58;1233;-82
2024/03/01 06:55:38;;;;;;;;;;;;;;;;;;2230772;66;1184;-82
2024/03/01 06:58:09;;;;;;;;;;;;;;;;;;2228339;53;3743;-21
2024/03/01 07:00:44;;;;;;;;;;;;;;;;;;2213746;66;2114;-20
2024/03/01 07:03:15;;;;;;;;;;;;;;;;;;2208586;59;2190;-20
2024/03/01 07:05:47;;;;;;;;;;;;;;;;;;2211622;66;3386;-20
2024/03/01 07:08:17;;;;;;;;;;;;;;;;;;2211665;58;2128;-20
2024/03/01 07:10:47;;;;;;;;;;;;;;;;;;2211409;58;2636;-21
2024/03/01 07:13:17;;;;;;;;;;;;;;;;;;2211298;58;2349;-21
2024/03/01 07:15:47;;;;;;;;;;;;;;;;;;2212137;66;1853;-20
2024/03/01 07:18:18;;;;;;;;;;;;;;;;;;2211498;66;2007;-21
2024/03/01 07:20:48;;;;;;;;;;;;;;;;;;2212451;59;2026;-21
2024/03/01 07:23:18;;;;;;;;;;;;;;;;;;2211247;59;1882;-21
2024/03/01 07:25:49;;;;;;;;;;;;;;;;;;2212306;58;2028;-21
2024/03/01 07:28:22;;;;;;;;;;;;;;;;;;2211588;66;2159;-22
2024/03/01 07:30:55;;;;;;;;;;;;;;;;;;2208164;66;1944;-21
2024/03/01 07:33:25;;;;;;;;;;;;;;;;;;2208658;66;1675;-21
2024/03/01 07:35:56;;;;;;;;;;;;;;;;;;2211685;66;1978;-21
2024/03/01 07:38:27;;;;;;;;;;;;;;;;;;2212731;66;2822;-21
2024/03/01 07:40:57;;;;;;;;;;;;;;;;;;2216107;53;1904;-19
2024/03/01 07:43:28;;;;;;;;;;;;;;;;;;2221772;58;1894;-18
2024/03/01 07:46:01;;;;;;;;;;;;;;;;;;2221021;58;1882;-18
2024/03/01 07:48:33;;;;;;;;;;;;;;;;;;2221517;58;2057;-19
2024/03/01 07:51:04;;;;;;;;;;;;;;;;;;2216973;66;2733;-19
2024/03/01 07:53:35;;;;;;;;;;;;;;;;;;2215221;59;2800;-19
2024/03/01 07:56:06;;;;;;;;;;;;;;;;;;2213153;59;2308;-19
2024/03/01 07:58:38;;;;;;;;;;;;;;;;;;2215624;59;1935;-19
2024/03/01 08:01:14;;;;;;;;;;;;;;;;;;2215349;66;1896;-19
2024/03/01 08:03:47;;;;;;;;;;;;;;;;;;2218036;58;1978;-19
2024/03/01 08:06:28;;;;;;;;;;;;;;;;;;2217054;58;2547;-19
2024/03/01 08:08:58;;;;;;;;;;;;;;;;;;2216741;58;1982;-19
2024/03/01 08:11:29;;;;;;;;;;;;;;;;;;2217318;66;1772;-19
2024/03/01 08:14:03;;;;;;;;;;;;;;;;;;2218235;58;2149;-19
2024/03/01 08:16:34;;;;;;;;;;;;;;;;;;2216550;66;1954;-19
2024/03/01 08:19:05;;;;;;;;;;;;;;;;;;2217068;66;2234;-19
2024/03/01 08:21:35;;;;;;;;;;;;;;;;;;2214462;59;1896;-20
2024/03/01 08:24:06;;;;;;;;;;;;;;;;;;2212902;66;2797;-32
2024/03/01 08:26:36;;;;;;;;;;;;;;;;;;2217143;59;1831;-19
2024/03/01 08:29:07;;;;;;;;;;;;;;;;;;2213010;66;1993;-19
2024/03/01 08:31:39;;;;;;;;;;;;;;;;;;2217666;66;2299;-19
2024/03/01 08:34:21;;;;;;;;;;;;;;;;;;2216274;66;1840;-18
2024/03/01 08:36:52;;;;;;;;;;;;;;;;;;2216572;66;2402;-18
2024/03/01 08:39:23;;;;;;;;;;;;;;;;;;2215481;58;1923;-18
2024/03/01 08:42:00;;;;;;;;;;;;;;;;;;2213966;59;1976;-18
2024/03/01 08:44:43;;;;;;;;;;;;;;;;;;2216107;58;1841;-19
2024/03/01 08:47:37;;;;;;;;;;;;;;;;;;2211683;59;1789;-19
2024/03/01 08:50:13;;;;;;;;;;;;;;;;;;2218106;66;1918;-19
2024/03/01 08:52:44;;;;;;;;;;;;;;;;;;2217438;66;2664;-19
2024/03/01 08:55:27;;;;;;;;;;;;;;;;;;2216815;58;2594;-19
2024/03/01 08:57:58;;;;;;;;;;;;;;;;;;2217554;66;1938;-19
2024/03/01 09:00:58;;;;;;;;;;;;;;;;;;2212810;59;1896;-19
2024/03/01 09:03:30;;;;;;;;;;;;;;;;;;2211644;59;1435;-19
2024/03/01 09:06:07;;;;;;;;;;;;;;;;;;2216466;66;1491;-19
2024/03/01 09:08:37;;;;;;;;;;;;;;;;;;2217894;66;1653;-19
2024/03/01 09:11:11;;;;;;;;;;;;;;;;;;2216784;66;1964;-19
2024/03/01 09:13:44;;;;;;;;;;;;;;;;;;2218035;58;1296;-19
2024/03/01 09:16:19;;;;;;;;;;;;;;;;;;2212027;66;1215;-19
2024/03/01 09:18:50;;;;;;;;;;;;;;;;;;2218044;66;1929;-19
2024/03/01 09:21:36;;;;;;;;;;;;;;;;;;2217050;66;1206;-19
2024/03/01 09:24:09;;;;;;;;;;;;;;;;;;2214973;58;2169;-19
2024/03/01 09:26:41;;;;;;;;;;;;;;;;;;2216157;66;1250;-19
2024/03/01 09:29:30;;;;;;;;;;;;;;;;;;2212705;66;1149;-19
2024/03/01 09:32:01;;;;;;;;;;;;;;;;;;2217135;66;1496;-19
2024/03/01 09:34:37;;;;;;;;;;;;;;;;;;2217115;66;1613;-19
2024/03/01 09:37:15;;;;;;;;;;;;;;;;;;2213542;66;1609;-19
2024/03/01 09:39:50;;;;;;;;;;;;;;;;;;2217362;58;1968;-19
2024/03/01 09:42:29;;;;;;;;;;;;;;;;;;2214294;66;1828;-20
2024/03/01 09:45:17;;;;;;;;;;;;;;;;;;2216419;58;1601;-19
2024/03/01 09:47:57;;;;;;;;;;;;;;;;;;2216886;58;1896;-19
2024/03/01 09:50:43;;;;;;;;;;;;;;;;;;2216411;66;1709;-19
2024/03/01 09:53:38;;;;;;;;;;;;;;;;;;2216004;66;1681;-18
2024/03/01 09:56:28;;;;;;;;;;;;;;;;;;2215863;58;1261;-19
2024/03/01 09:59:26;;;;;;;;;;;;;;;;;;2213492;66;2001;-19
2024/03/01 10:02:21;;;;;;;;;;;;;;;;;;2214879;66;2110;-19
2024/03/01 10:05:10;;;;;;;;;;;;;;;;;;2217278;59;1700;-19
2024/03/01 10:07:50;;;;;;;;;;;;;;;;;;2216691;59;1946;-19
2024/03/01 10:10:29;;;;;;;;;;;;;;;;;;2215006;58;2190;-19
2024/03/01 10:13:06;;;;;;;;;;;;;;;;;;2217194;66;1224;-19
2024/03/01 10:15:57;;;;;;;;;;;;;;;;;;2215871;58;1214;-19
2024/03/01 10:18:27;;;;;;;;;;;;;;;;;;2215867;66;1933;-19
2024/03/01 10:21:11;;;;;;;;;;;;;;;;;;2210546;66;1532;-19
2024/03/01 10:24:19;;;;;;;;;;;;;;;;;;2215716;58;2056;-19
2024/03/01 10:27:14;;;;;;;;;;;;;;;;;;2211006;59;1984;-19
2024/03/01 10:30:00;;;;;;;;;;;;;;;;;;2215027;58;2052;-19
2024/03/01 10:32:34;;;;;;;;;;;;;;;;;;2213469;66;1576;-19
2024/03/01 10:35:24;;;;;;;;;;;;;;;;;;2217193;59;1933;-19
2024/03/01 10:38:28;;;;;;;;;;;;;;;;;;2213267;66;1927;-19
2024/03/01 10:41:27;;;;;;;;;;;;;;;;;;2206955;58;1657;-19
2024/03/01 10:43:57;;;;;;;;;;;;;;;;;;2217753;58;1388;-19
2024/03/01 10:47:00;;;;;;;;;;;;;;;;;;2215679;58;1446;-19
2024/03/01 10:49:43;;;;;;;;;;;;;;;;;;2201069;67;1796;-19
2024/03/01 10:52:29;;;;;;;;;;;;;;;;;;2205312;58;2468;-19
2024/03/01 10:55:01;;;;;;;;;;;;;;;;;;2215107;58;1401;-19
2024/03/01 10:57:33;;;;;;;;;;;;;;;;;;2215871;66;1449;-19
2024/03/01 11:00:12;;;;;;;;;;;;;;;;;;2216114;58;1958;-19
2024/03/01 11:02:58;;;;;;;;;;;;;;;;;;2212786;58;2257;-19
2024/03/01 11:05:37;;;;;;;;;;;;;;;;;;2215185;66;1332;-19
2024/03/01 11:08:15;;;;;;;;;;;;;;;;;;2213021;58;1297;-19
2024/03/01 11:11:05;;;;;;;;;;;;;;;;;;2210910;66;1768;-19
2024/03/01 11:13:40;;;;;;;;;;;;;;;;;;2216342;59;1702;-19
2024/03/01 11:16:13;;;;;;;;;;;;;;;;;;2216446;66;1487;-19
2024/03/01 11:18:53;;;;;;;;;;;;;;;;;;2215824;66;1944;-19
2024/03/01 11:21:27;;;;;;;;;;;;;;;;;;2213708;58;2062;-19
2024/03/01 11:24:08;;;;;;;;;;;;;;;;;;2215560;59;2361;-19
2024/03/01 11:26:46;;;;;;;;;;;;;;;;;;2212436;59;1311;-19
2024/03/01 11:29:31;;;;;;;;;;;;;;;;;;2215947;66;1284;-19
2024/03/01 11:32:10;;;;;;;;;;;;;;;;;;2216675;66;1516;-19
2024/03/01 11:34:48;;;;;;;;;;;;;;;;;;2214405;66;1954;-19
2024/03/01 11:37:24;;;;;;;;;;;;;;;;;;2214868;58;2320;-18
2024/03/01 11:40:18;;;;;;;;;;;;;;;;;;2216941;58;2026;-19
2024/03/01 11:43:01;;;;;;;;;;;;;;;;;;2213182;59;2039;-19
2024/03/01 11:45:49;;;;;;;;;;;;;;;;;;2216556;58;1360;-19
2024/03/01 11:48:23;;;;;;;;;;;;;;;;;;2215007;66;2207;-19
2024/03/01 11:51:16;;;;;;;;;;;;;;;;;;2215797;59;1270;-19
2024/03/01 11:53:56;;;;;;;;;;;;;;;;;;2211224;59;2332;-19
2024/03/01 11:56:35;;;;;;;;;;;;;;;;;;2213914;58;2298;-18
2024/03/01 11:59:21;;;;;;;;;;;;;;;;;;2210466;66;2671;-19
2024/03/01 12:01:51;;;;;;;;;;;;;;;;;;2218342;66;2059;-19
2024/03/01 12:04:38;;;;;;;;;;;;;;;;;;2214451;66;1869;-19
2024/03/01 12:07:34;;;;;;;;;;;;;;;;;;2215126;66;1557;-18
2024/03/01 12:10:23;;;;;;;;;;;;;;;;;;2211831;66;1523;-19
2024/03/01 12:12:57;;;;;;;;;;;;;;;;;;2216681;59;2659;-19
2024/03/01 12:15:55;;;;;;;;;;;;;;;;;;2214903;58;2010;-19
2024/03/01 12:18:29;;;;;;;;;;;;;;;;;;2214652;58;1956;-19
2024/03/01 12:21:32;;;;;;;;;;;;;;;;;;2216282;66;1512;-19
2024/03/01 12:24:20;;;;;;;;;;;;;;;;;;2200981;66;1339;-19
2024/03/01 12:27:06;;;;;;;;;;;;;;;;;;2216005;58;2023;-19
2024/03/01 12:29:39;;;;;;;;;;;;;;;;;;2214691;58;3522;-19
2024/03/01 12:32:24;;;;;;;;;;;;;;;;;;2215068;58;2609;-19
2024/03/01 12:35:07;;;;;;;;;;;;;;;;;;2215047;66;1426;-19
2024/03/01 12:38:05;;;;;;;;;;;;;;;;;;2213967;58;3038;-19
2024/03/01 12:40:41;;;;;;;;;;;;;;;;;;2208979;58;2161;-19
2024/03/01 12:43:11;;;;;;;;;;;;;;;;;;2213559;58;2124;-19
2024/03/01 12:46:07;;;;;;;;;;;;;;;;;;2213536;58;1469;-19
2024/03/01 12:48:48;;;;;;;;;;;;;;;;;;2210408;58;2495;-19
2024/03/01 12:51:28;;;;;;;;;;;;;;;;;;2213041;66;1611;-19
2024/03/01 12:54:19;;;;;;;;;;;;;;;;;;2214370;66;1600;-19
2024/03/01 12:57:03;;;;;;;;;;;;;;;;;;2215086;66;1634;-19
2024/03/01 12:59:37;;;;;;;;;;;;;;;;;;2213301;66;1928;-19
2024/03/01 13:02:40;;;;;;;;;;;;;;;;;;2212674;58;1563;-19
2024/03/01 13:05:24;;;;;;;;;;;;;;;;;;2215175;59;1550;-19
2024/03/01 13:08:22;;;;;;;;;;;;;;;;;;2214455;66;1660;-19
2024/03/01 13:10:55;;;;;;;;;;;;;;;;;;2214455;66;1178;-19
2024/03/01 13:13:29;;;;;;;;;;;;;;;;;;2216929;58;2161;-19
2024/03/01 13:16:08;;;;;;;;;;;;;;;;;;2216219;59;1285;-19
2024/03/01 13:18:53;;;;;;;;;;;;;;;;;;2215608;66;1910;-19
2024/03/01 13:21:42;;;;;;;;;;;;;;;;;;2214383;59;1265;-19
2024/03/01 13:24:38;;;;;;;;;;;;;;;;;;2214082;66;1211;-19
2024/03/01 13:27:18;;;;;;;;;;;;;;;;;;2215949;58;2051;-19
2024/03/01 13:29:51;;;;;;;;;;;;;;;;;;2208955;59;2153;-19
2024/03/01 13:32:24;;;;;;;;;;;;;;;;;;2213706;66;1682;-19
2024/03/01 13:35:00;;;;;;;;;;;;;;;;;;2215110;66;1519;-19
2024/03/01 13:38:07;;;;;;;;;;;;;;;;;;2214100;59;1700;-19
2024/03/01 13:40:49;;;;;;;;;;;;;;;;;;2213155;58;2093;-19
2024/03/01 13:43:28;;;;;;;;;;;;;;;;;;2213538;66;1845;-19
2024/03/01 13:46:28;;;;;;;;;;;;;;;;;;2212798;59;1714;-19
2024/03/01 13:49:07;;;;;;;;;;;;;;;;;;2211483;59;2102;-19
2024/03/01 13:51:39;;;;;;;;;;;;;;;;;;2214174;66;1574;-19
2024/03/01 13:54:12;;;;;;;;;;;;;;;;;;2216738;58;2310;-18
2024/03/01 13:56:45;;;;;;;;;;;;;;;;;;2215819;58;1482;-19
2024/03/01 13:59:17;;;;;;;;;;;;;;;;;;2216722;66;1998;-18
2024/03/01 14:01:49;;;;;;;;;;;;;;;;;;2212400;59;1529;-18
2024/03/01 14:04:19;;;;;;;;;;;;;;;;;;2214561;58;1780;-18
2024/03/01 14:06:53;;;;;;;;;;;;;;;;;;2214767;66;1627;-18
2024/03/01 14:09:24;;;;;;;;;;;;;;;;;;2215216;58;1604;-18
2024/03/01 14:11:55;;;;;;;;;;;;;;;;;;2215144;66;1760;-18
2024/03/01 14:14:27;;;;;;;;;;;;;;;;;;2211965;59;1652;-18
2024/03/01 14:16:59;;;;;;;;;;;;;;;;;;2214991;66;1391;-19
2024/03/01 14:19:30;;;;;;;;;;;;;;;;;;2214949;66;1961;-18
2024/03/01 14:22:00;;;;;;;;;;;;;;;;;;2201376;66;1726;-18
2024/03/01 14:24:31;;;;;;;;;;;;;;;;;;2215335;66;1949;-18
2024/03/01 14:27:01;;;;;;;;;;;;;;;;;;2213329;66;1495;-18
2024/03/01 14:29:31;;;;;;;;;;;;;;;;;;2215835;66;1631;-18
2024/03/01 14:32:03;;;;;;;;;;;;;;;;;;2215527;66;1714;-18
2024/03/01 14:34:34;;;;;;;;;;;;;;;;;;2214265;66;1576;-18
2024/03/01 14:37:05;;;;;;;;;;;;;;;;;;2212646;66;1604;-18
2024/03/01 14:39:38;;;;;;;;;;;;;;;;;;2213699;58;2996;-18
2024/03/01 14:42:17;;;;;;;;;;;;;;;;;;2216340;59;1524;-18
2024/03/01 14:44:53;;;;;;;;;;;;;;;;;;2215395;66;2398;-18
2024/03/01 14:47:27;;;;;;;;;;;;;;;;;;2214301;66;1584;-18
2024/03/01 14:50:02;;;;;;;;;;;;;;;;;;2215211;58;2068;-18
2024/03/01 14:52:33;;;;;;;;;;;;;;;;;;2216107;66;1762;-18
2024/03/01 14:55:04;;;;;;;;;;;;;;;;;;2215400;59;2803;-18
2024/03/01 14:57:37;;;;;;;;;;;;;;;;;;2212066;66;1629;-18
2024/03/01 15:00:17;;;;;;;;;;;;;;;;;;2215663;66;2230;-18
2024/03/01 15:02:54;;;;;;;;;;;;;;;;;;2214869;58;2117;-18
2024/03/01 15:05:27;;;;;;;;;;;;;;;;;;2215132;66;1474;-18
2024/03/01 15:07:58;;;;;;;;;;;;;;;;;;2215755;66;1594;-18
2024/03/01 15:10:28;;;;;;;;;;;;;;;;;;2213640;58;2454;-18
2024/03/01 15:12:59;;;;;;;;;;;;;;;;;;2216036;59;1436;-18
2024/03/01 15:15:53;;;;;;;;;;;;;;;;;;2214090;58;1793;-18
2024/03/01 15:18:24;;;;;;;;;;;;;;;;;;2215585;58;2582;-18
2024/03/01 15:20:56;;;;;;;;;;;;;;;;;;2213878;66;1621;-18
2024/03/01 15:23:26;;;;;;;;;;;;;;;;;;2214213;58;1619;-18
2024/03/01 15:26:06;;;;;;;;;;;;;;;;;;2215997;58;1568;-18
2024/03/01 15:28:49;;;;;;;;;;;;;;;;;;2212640;66;1482;-18
2024/03/01 15:31:22;;;;;;;;;;;;;;;;;;2214984;66;1676;-18
2024/03/01 15:33:52;;;;;;;;;;;;;;;;;;2202039;58;2237;-18
2024/03/01 15:36:22;;;;;;;;;;;;;;;;;;2214370;59;2018;-18
2024/03/01 15:38:53;;;;;;;;;;;;;;;;;;2212051;59;2165;-18
2024/03/01 15:41:23;;;;;;;;;;;;;;;;;;2213566;58;2442;-18
2024/03/01 15:43:53;;;;;;;;;;;;;;;;;;2214122;58;3734;-18
2024/03/01 15:46:26;;;;;;;;;;;;;;;;;;2214632;58;3274;-18
2024/03/01 15:48:56;;;;;;;;;;;;;;;;;;2214559;66;3426;-18
2024/03/01 15:51:31;;;;;;;;;;;;;;;;;;2213096;58;2626;-17
2024/03/01 15:54:01;;;;;;;;;;;;;;;;;;2212550;66;2722;-18
2024/03/01 15:56:34;;;;;;;;;;;;;;;;;;2212101;59;2363;-17
2024/03/01 15:59:09;;;;;;;;;;;;;;;;;;2214978;59;2431;-18
2024/03/01 16:01:39;;;;;;;;;;;;;;;;;;2213059;66;2593;-18
2024/03/01 16:04:09;;;;;;;;;;;;;;;;;;2200171;59;2741;-18
2024/03/01 16:06:41;;;;;;;;;;;;;;;;;;2210838;58;2494;-18
2024/03/01 16:09:15;;;;;;;;;;;;;;;;;;2214220;58;2243;-18
2024/03/01 16:11:47;;;;;;;;;;;;;;;;;;2214652;58;3204;-17
2024/03/01 16:14:18;;;;;;;;;;;;;;;;;;2209458;59;2415;-17
2024/03/01 16:16:48;;;;;;;;;;;;;;;;;;2214025;66;1609;-17
2024/03/01 16:19:19;;;;;;;;;;;;;;;;;;2215538;66;2628;-17
2024/03/01 16:21:51;;;;;;;;;;;;;;;;;;2214034;59;1642;-18
2024/03/01 16:24:21;;;;;;;;;;;;;;;;;;2212559;66;1504;-17
2024/03/01 16:26:52;;;;;;;;;;;;;;;;;;2212445;66;1691;-17
2024/03/01 16:29:23;;;;;;;;;;;;;;;;;;2216850;66;1515;-17
2024/03/01 16:31:53;;;;;;;;;;;;;;;;;;2214471;59;2086;-18
2024/03/01 16:34:24;;;;;;;;;;;;;;;;;;2212693;66;1605;-17
2024/03/01 16:36:54;;;;;;;;;;;;;;;;;;2215051;66;1496;-18
2024/03/01 16:39:38;;;;;;;;;;;;;;;;;;2216836;58;2192;-18
2024/03/01 16:42:31;;;;;;;;;;;;;;;;;;2215924;66;1546;-17
2024/03/01 16:45:02;;;;;;;;;;;;;;;;;;2213534;59;1925;-17
2024/03/01 16:47:34;;;;;;;;;;;;;;;;;;2215562;66;1992;-17
2024/03/01 16:50:06;;;;;;;;;;;;;;;;;;2214806;66;1659;-17
2024/03/01 16:52:39;;;;;;;;;;;;;;;;;;2215189;59;1606;-19
2024/03/01 16:55:29;;;;;;;;;;;;;;;;;;2212753;58;3907;-20
2024/03/01 16:58:00;;;;;;;;;;;;;;;;;;2212806;66;2098;-20
2024/03/01 17:00:32;;;;;;;;;;;;;;;;;;2212863;66;2105;-19
2024/03/01 17:03:05;;;;;;;;;;;;;;;;;;2211594;59;2649;-19
2024/03/01 17:05:43;;;;;;;;;;;;;;;;;;2214295;58;2172;-19
2024/03/01 17:08:42;;;;;;;;;;;;;;;;;;2214648;66;1620;-19
2024/03/01 17:11:13;;;;;;;;;;;;;;;;;;2214277;66;2136;-21
2024/03/01 17:13:49;;;;;;;;;;;;;;;;;;2213863;58;1531;-19
2024/03/01 17:16:24;;;;;;;;;;;;;;;;;;2215078;66;1526;-19
2024/03/01 17:18:54;;;;;;;;;;;;;;;;;;2213384;66;1931;-19
2024/03/01 17:21:27;;;;;;;;;;;;;;;;;;2215307;66;1631;-19
2024/03/01 17:24:00;;;;;;;;;;;;;;;;;;2214261;58;2519;-19
2024/03/01 17:26:32;;;;;;;;;;;;;;;;;;2215622;66;1631;-19
2024/03/01 17:29:02;;;;;;;;;;;;;;;;;;2211735;66;1679;-19
2024/03/01 17:31:41;;;;;;;;;;;;;;;;;;2210456;66;1623;-19
2024/03/01 17:34:11;;;;;;;;;;;;;;;;;;2215886;66;1727;-19
2024/03/01 17:36:42;;;;;;;;;;;;;;;;;;2211063;66;1569;-19
2024/03/01 17:39:12;;;;;;;;;;;;;;;;;;2199534;58;2789;-20
2024/03/01 17:41:42;;;;;;;;;;;;;;;;;;2212291;58;1783;-19
2024/03/01 17:44:13;;;;;;;;;;;;;;;;;;2215758;66;1533;-19
2024/03/01 17:46:44;;;;;;;;;;;;;;;;;;2212244;59;2301;-19
2024/03/01 17:49:15;;;;;;;;;;;;;;;;;;2216556;59;1551;-19
2024/03/01 17:51:45;;;;;;;;;;;;;;;;;;2211929;66;1552;-19
2024/03/01 17:54:17;;;;;;;;;;;;;;;;;;2215472;66;1571;-19